Bookmark and Share
Track history (hours):
 

Jack Guidry

More information available from US FCC via Universal Licensing System and Coast Guard Vessel Documentation Center.

Last reported at 2014-Apr-17 10:23 UTC. Time now 2014-Apr-17 18:35 UTC.
Position N 29°34' W 090°43'.

Length 22 m; draft 2.5 m.

Type: Other ship. MMSI: 367003430.

NotesDate/timePositionNaut miles runAvg speedWind from/ knotsBaromVisibWave heightAir tempDewpointWater temp
2014-Apr-17 10:23N 29°34' W 090°43'4 1.3
2014-Apr-17 07:04N 29°32' W 090°47'3 5.4
2014-Apr-17 06:30N 29°32' W 090°51'11 4.8
2014-Apr-17 04:09N 29°37' W 091°02'3 5.0
2014-Apr-17 03:34N 29°38' W 091°06'4 3.8
2014-Apr-17 02:34N 29°41' W 091°09'2 1.9
2014-Apr-17 01:34N 29°41' W 091°11'2 1.6
2014-Apr-17 00:33N 29°41' W 091°13'5 4.9
2014-Apr-16 23:34N 29°39' W 091°18'5 5.1
2014-Apr-16 22:34N 29°39' W 091°24'4 0.5
2014-Apr-16 13:23N 29°41' W 091°28'6 3.3
2014-Apr-16 11:33N 29°39' W 091°22'8 8.2
2014-Apr-16 10:34N 29°41' W 091°13'3 3.2
2014-Apr-16 09:34N 29°41' W 091°09'0 0.3
2014-Apr-16 08:33N 29°41' W 091°09'5 4.6
2014-Apr-16 07:34N 29°38' W 091°05'7 6.9
2014-Apr-16 06:32N 29°35' W 090°57'  
2014-Apr-08 09:14N 29°32' W 090°50'5 6.2
2014-Apr-08 08:28N 29°33' W 090°55'5 5.9
2014-Apr-08 07:32N 29°37' W 090°59'5 5.6
2014-Apr-08 06:33N 29°38' W 091°06'5 4.6
2014-Apr-08 05:33N 29°41' W 091°10'4 3.9
2014-Apr-08 04:33N 29°40' W 091°14'5 4.9
2014-Apr-08 03:33N 29°38' W 091°19'5 4.9
2014-Apr-08 02:33N 29°39' W 091°25'5 4.4
2014-Apr-08 01:25N 29°42' W 091°30'4 4.5
2014-Apr-08 00:33N 29°44' W 091°34'  

Dump ship's entire track history

sailing weather and tide predictions

Jack Guidry — WDF2422 — position and weather